createdAt,value
2019-04-22T00:02:06.012Z,5.37
2019-04-22T00:05:01.086Z,4.93
2019-04-22T00:08:01.647Z,5.33
2019-04-22T00:10:56.911Z,5.50
2019-04-22T00:13:47.494Z,8.53
2019-04-22T00:16:45.435Z,5.80
2019-04-22T00:22:20.548Z,5.47
2019-04-22T00:25:10.211Z,3.83
2019-04-22T00:30:36.131Z,4.10
2019-04-22T00:33:29.426Z,4.13
2019-04-22T00:36:16.403Z,3.40
2019-04-22T00:39:08.860Z,5.50
2019-04-22T00:41:57.067Z,3.40
2019-04-22T00:44:46.975Z,4.93
2019-04-22T00:47:38.055Z,3.90
2019-04-22T00:50:23.575Z,5.30
2019-04-22T00:53:19.674Z,6.83
2019-04-22T00:58:56.570Z,5.60
2019-04-22T01:01:47.120Z,2.67
2019-04-22T01:04:40.629Z,5.07
2019-04-22T01:07:25.378Z,4.67
2019-04-22T01:10:19.718Z,5.10
2019-04-22T01:13:04.782Z,8.10
2019-04-22T01:16:01.182Z,3.87
2019-04-22T01:18:42.315Z,5.30
2019-04-22T01:21:36.985Z,4.17
2019-04-22T01:24:16.847Z,4.97
2019-04-22T01:27:02.903Z,4.00
2019-04-22T01:29:51.475Z,6.97
2019-04-22T01:32:34.023Z,3.07
2019-04-22T01:35:31.146Z,3.70
2019-04-22T01:38:19.008Z,3.43
2019-04-22T01:41:26.638Z,4.20
2019-04-22T01:44:14.358Z,5.07
2019-04-22T01:47:00.230Z,5.03
2019-04-22T01:49:46.215Z,4.73
2019-04-22T01:52:41.549Z,4.23
2019-04-22T01:58:10.880Z,5.10
2019-04-22T02:01:04.918Z,4.87
2019-04-22T02:03:59.587Z,6.53
2019-04-22T02:06:42.175Z,5.07
2019-04-22T02:09:49.669Z,3.53
2019-04-22T02:15:13.815Z,4.13
2019-04-22T02:18:01.708Z,3.63
2019-04-22T02:20:48.799Z,3.63
2019-04-22T02:26:31.298Z,6.80
2019-04-22T02:29:26.700Z,4.33
2019-04-22T02:32:24.800Z,5.13
2019-04-22T02:35:23.997Z,3.63
2019-04-22T02:37:48.117Z,6.43
2019-04-22T02:40:56.282Z,7.37
2019-04-22T02:43:49.203Z,3.73
2019-04-22T02:46:41.292Z,5.10
2019-04-22T02:49:18.726Z,4.53
2019-04-22T02:51:52.138Z,5.10
2019-04-22T03:00:34.583Z,4.80
2019-04-22T03:03:41.403Z,5.93
2019-04-22T03:06:16.502Z,5.07
2019-04-22T03:08:53.781Z,5.60
2019-04-22T03:11:50.033Z,4.97
2019-04-22T03:14:30.635Z,4.67
2019-04-22T03:17:22.093Z,4.77
2019-04-22T03:23:13.690Z,4.17
2019-04-22T03:28:49.979Z,3.63
2019-04-22T03:40:30.397Z,5.40
2019-04-22T03:45:51.674Z,5.40
2019-04-22T03:49:05.967Z,4.77
2019-04-22T03:51:54.485Z,4.13
2019-04-22T03:54:39.902Z,5.87
2019-04-22T04:00:21.688Z,8.53
2019-04-22T04:11:38.159Z,4.90
2019-04-22T04:14:18.195Z,5.13
2019-04-22T04:17:02.380Z,4.33
2019-04-22T04:20:10.695Z,5.27
2019-04-22T04:22:53.713Z,4.07
2019-04-22T04:28:47.188Z,4.23
2019-04-22T04:31:22.270Z,7.87
2019-04-22T04:36:54.586Z,6.43
2019-04-22T04:39:43.400Z,5.00
2019-04-22T04:45:40.537Z,4.00
2019-04-22T04:48:09.629Z,4.90
2019-04-22T04:53:52.124Z,4.07
2019-04-22T04:59:41.707Z,6.43
2019-04-22T05:02:19.875Z,5.87
2019-04-22T05:07:51.948Z,4.57
2019-04-22T05:13:33.412Z,4.97
2019-04-22T05:16:34.518Z,4.90
2019-04-22T05:21:53.405Z,7.43
2019-04-22T05:33:01.389Z,3.93
2019-04-22T05:35:57.933Z,5.70
2019-04-22T05:38:49.499Z,3.70
2019-04-22T05:41:39.575Z,4.87
2019-04-22T05:44:30.864Z,6.00
2019-04-22T05:47:14.684Z,5.27
2019-04-22T05:50:02.356Z,5.43
2019-04-22T05:52:51.499Z,5.60
2019-04-22T05:58:38.443Z,5.07
2019-04-22T06:01:43.530Z,5.07
2019-04-22T06:04:11.506Z,5.20
2019-04-22T06:07:00.507Z,5.77
2019-04-22T06:09:55.765Z,7.07
2019-04-22T06:12:35.678Z,6.53
2019-04-22T06:15:30.129Z,4.70
2019-04-22T06:18:22.783Z,4.27
2019-04-22T06:21:11.439Z,4.93
2019-04-22T06:24:07.741Z,4.00
2019-04-22T06:29:30.140Z,5.00
2019-04-22T06:35:23.271Z,6.30
2019-04-22T06:41:07.332Z,4.07
2019-04-22T06:43:44.614Z,5.97
2019-04-22T06:46:34.617Z,4.60
2019-04-22T06:49:23.884Z,6.83
2019-04-22T06:52:17.046Z,7.33
2019-04-22T06:55:05.982Z,8.00
2019-04-22T06:57:52.388Z,6.57
2019-04-22T07:00:42.976Z,8.00
2019-04-22T07:03:45.820Z,5.40
2019-04-22T07:06:23.556Z,6.80
2019-04-22T07:12:02.439Z,6.67
2019-04-22T07:14:49.010Z,6.53
2019-04-22T07:17:37.953Z,5.03
2019-04-22T07:20:24.214Z,5.70
2019-04-22T07:23:24.845Z,8.53
2019-04-22T07:26:06.071Z,6.83
2019-04-22T07:28:49.033Z,7.83
2019-04-22T07:31:42.795Z,6.03
2019-04-22T07:34:33.334Z,4.70
2019-04-22T07:37:29.710Z,6.00
2019-04-22T07:40:09.828Z,5.50
2019-04-22T07:42:57.507Z,6.90
2019-04-22T07:45:48.903Z,5.13
2019-04-22T07:48:45.239Z,9.07
2019-04-22T07:51:32.716Z,6.27
2019-04-22T07:54:16.305Z,5.40
2019-04-22T07:57:12.080Z,7.20
2019-04-22T07:59:58.979Z,9.67
2019-04-22T08:02:55.461Z,6.37
2019-04-22T08:08:26.099Z,6.10
2019-04-22T08:11:22.131Z,6.17
2019-04-22T08:13:58.894Z,6.70
2019-04-22T08:16:53.315Z,4.47
2019-04-22T08:19:44.081Z,5.03
2019-04-22T08:22:25.973Z,7.67
2019-04-22T08:25:16.718Z,5.17
2019-04-22T08:28:13.312Z,6.67
2019-04-22T08:31:01.957Z,5.17
2019-04-22T08:33:46.575Z,5.47
2019-04-22T08:36:40.811Z,3.73
2019-04-22T08:39:35.865Z,6.60
2019-04-22T08:42:17.738Z,5.37
2019-04-22T08:45:09.609Z,5.20
2019-04-22T08:47:51.247Z,8.13
2019-04-22T08:50:44.246Z,6.47
2019-04-22T08:53:32.983Z,4.37
2019-04-22T08:56:29.553Z,6.33
2019-04-22T09:01:59.653Z,6.40
2019-04-22T09:04:48.075Z,6.37
2019-04-22T09:07:44.753Z,6.80
2019-04-22T09:10:33.517Z,6.20
2019-04-22T09:13:14.305Z,5.40
2019-04-22T09:16:10.368Z,5.97
2019-04-22T09:18:54.265Z,9.73
2019-04-22T09:21:53.217Z,5.70
2019-04-22T09:24:39.067Z,5.63
2019-04-22T09:27:37.035Z,4.97
2019-04-22T09:30:16.903Z,4.97
2019-04-22T09:33:08.229Z,4.50
2019-04-22T09:35:52.000Z,6.13
2019-04-22T09:41:33.450Z,6.97
2019-04-22T09:44:14.881Z,7.43
2019-04-22T09:47:08.024Z,7.10
2019-04-22T09:52:50.075Z,4.00
2019-04-22T09:55:34.548Z,4.50
2019-04-22T09:58:23.638Z,5.00
2019-04-22T10:01:23.841Z,5.93
2019-04-22T10:04:06.437Z,5.67
2019-04-22T10:06:57.429Z,6.37
2019-04-22T10:12:37.081Z,4.37
2019-04-22T10:15:25.109Z,4.97
2019-04-22T10:18:20.333Z,4.30
2019-04-22T10:21:00.994Z,7.07
2019-04-22T10:23:54.820Z,5.37
2019-04-22T10:29:38.588Z,3.77
2019-04-22T10:32:17.770Z,5.93
2019-04-22T10:35:11.133Z,5.93
2019-04-22T10:37:54.405Z,6.17
2019-04-22T10:40:42.831Z,6.50
2019-04-22T10:43:30.594Z,3.50
2019-04-22T10:46:18.179Z,4.13
2019-04-22T10:49:06.427Z,3.37
2019-04-22T10:51:54.937Z,4.00
2019-04-22T10:54:43.287Z,4.77
2019-04-22T10:57:31.864Z,6.20
2019-04-22T11:00:19.853Z,5.10
2019-04-22T11:03:08.438Z,4.73
2019-04-22T11:05:57.100Z,4.67
2019-04-22T11:08:52.230Z,7.23
2019-04-22T11:11:45.518Z,5.90
2019-04-22T11:14:23.333Z,5.23
2019-04-22T11:17:11.444Z,6.77
2019-04-22T11:19:59.636Z,6.57
2019-04-22T11:22:48.826Z,4.50
2019-04-22T11:25:36.680Z,6.83
2019-04-22T11:28:25.517Z,5.40
2019-04-22T11:31:14.536Z,4.60
2019-04-22T11:34:02.847Z,6.97
2019-04-22T11:36:50.628Z,5.77
2019-04-22T11:39:38.652Z,8.07
2019-04-22T11:42:28.038Z,7.20
2019-04-22T11:45:17.387Z,4.83
2019-04-22T11:48:05.557Z,6.20
2019-04-22T11:50:53.716Z,4.93
2019-04-22T11:53:42.788Z,5.67
2019-04-22T11:56:31.296Z,5.93
2019-04-22T11:59:20.563Z,5.30
2019-04-22T12:02:08.990Z,8.77
2019-04-22T12:04:58.130Z,7.00
2019-04-22T12:07:46.978Z,5.50
2019-04-22T12:10:41.122Z,10.60
2019-04-22T12:13:24.219Z,5.10
2019-04-22T12:16:11.703Z,5.50
2019-04-22T12:18:59.256Z,8.23
2019-04-22T12:21:49.131Z,4.47
2019-04-22T12:24:38.378Z,9.57
2019-04-22T12:27:28.751Z,4.27
2019-04-22T12:30:16.760Z,4.67
2019-04-22T12:33:07.387Z,6.43
2019-04-22T12:35:54.765Z,7.87
2019-04-22T12:38:42.517Z,4.77
2019-04-22T12:41:31.115Z,6.63
2019-04-22T12:44:20.140Z,9.40
2019-04-22T12:47:09.855Z,6.03
2019-04-22T12:50:11.857Z,5.20
2019-04-22T12:52:54.725Z,8.20
2019-04-22T12:55:35.643Z,4.57
2019-04-22T12:58:23.612Z,8.07
2019-04-22T13:01:11.209Z,6.47
2019-04-22T13:04:05.774Z,7.53
2019-04-22T13:06:49.870Z,5.57
2019-04-22T13:09:38.982Z,7.20
2019-04-22T13:12:26.922Z,6.47
2019-04-22T13:15:15.986Z,6.43
2019-04-22T13:18:13.531Z,6.90
2019-04-22T13:20:52.933Z,4.60
2019-04-22T13:23:41.293Z,5.27
2019-04-22T13:26:29.748Z,13.17
2019-04-22T13:29:17.271Z,8.00
2019-04-22T13:32:05.023Z,9.90
2019-04-22T13:34:57.513Z,9.50
2019-04-22T13:37:43.332Z,8.60
2019-04-22T13:40:30.911Z,9.90
2019-04-22T13:43:18.778Z,8.77
2019-04-22T13:46:08.075Z,8.73
2019-04-22T13:49:23.967Z,5.30
2019-04-22T13:54:59.890Z,8.37
2019-04-22T13:57:42.618Z,6.43
2019-04-22T14:00:16.487Z,5.30
2019-04-22T14:03:30.826Z,6.93
2019-04-22T14:06:20.577Z,5.27
2019-04-22T14:09:09.518Z,8.43
2019-04-22T14:12:03.357Z,6.40
2019-04-22T14:14:49.042Z,7.00
2019-04-22T14:17:36.829Z,6.23
2019-04-22T14:20:27.762Z,6.33
2019-04-22T14:23:15.943Z,7.17
2019-04-22T14:26:05.228Z,7.67
2019-04-22T14:28:53.465Z,8.07
2019-04-22T14:31:42.480Z,7.03
2019-04-22T14:34:30.316Z,3.73
2019-04-22T14:37:18.626Z,7.50
2019-04-22T14:40:09.493Z,5.13
2019-04-22T14:43:21.383Z,9.03
2019-04-22T14:46:17.672Z,4.90
2019-04-22T14:48:55.717Z,6.17
2019-04-22T14:51:47.059Z,6.80
2019-04-22T14:54:31.054Z,7.10
2019-04-22T14:57:03.514Z,5.07
2019-04-22T14:59:51.023Z,5.77
2019-04-22T15:02:39.516Z,6.93
2019-04-22T15:05:28.262Z,4.67
2019-04-22T15:08:17.300Z,4.73
2019-04-22T15:11:06.258Z,5.17
2019-04-22T15:13:54.129Z,6.20
2019-04-22T15:16:53.043Z,6.53
2019-04-22T15:19:59.785Z,7.67
2019-04-22T15:22:48.405Z,5.17
2019-04-22T15:25:36.749Z,5.57
2019-04-22T15:28:24.425Z,5.50
2019-04-22T15:31:11.606Z,5.87
2019-04-22T15:34:00.572Z,5.80
2019-04-22T15:36:48.531Z,8.30
2019-04-22T15:39:36.453Z,9.67
2019-04-22T15:42:28.688Z,8.50
2019-04-22T15:45:15.040Z,5.43
2019-04-22T15:48:02.352Z,7.40
2019-04-22T15:50:50.746Z,7.03
2019-04-22T15:53:39.889Z,7.13
2019-04-22T15:56:28.456Z,5.73
2019-04-22T15:59:35.070Z,7.47
2019-04-22T16:02:06.610Z,9.53
2019-04-22T16:04:56.719Z,8.57
2019-04-22T16:07:45.794Z,6.87
2019-04-22T16:10:33.819Z,7.57
2019-04-22T16:13:26.448Z,6.80
2019-04-22T16:16:10.644Z,9.43
2019-04-22T16:18:58.585Z,6.50
2019-04-22T16:21:53.431Z,7.07
2019-04-22T16:24:54.145Z,6.40
2019-04-22T16:27:42.784Z,5.80
2019-04-22T16:30:31.036Z,8.27
2019-04-22T16:33:19.348Z,10.70
2019-04-22T16:36:08.860Z,8.17
2019-04-22T16:38:57.150Z,4.53
2019-04-22T16:41:46.560Z,6.07
2019-04-22T16:44:34.519Z,8.30
2019-04-22T16:47:23.769Z,10.17
2019-04-22T16:50:11.734Z,8.73
2019-04-22T16:52:59.746Z,7.03
2019-04-22T16:55:47.174Z,9.93
2019-04-22T16:58:36.841Z,6.77
2019-04-22T17:01:52.805Z,6.77
2019-04-22T17:04:51.194Z,7.83
2019-04-22T17:07:38.636Z,9.60
2019-04-22T17:10:27.937Z,8.73
2019-04-22T17:13:20.727Z,6.23
2019-04-22T17:16:06.896Z,6.83
2019-04-22T17:18:56.347Z,7.40
2019-04-22T17:21:45.363Z,9.37
2019-04-22T17:24:33.030Z,7.93
2019-04-22T17:27:20.648Z,7.27
2019-04-22T17:30:10.455Z,10.93
2019-04-22T17:32:58.800Z,6.40
2019-04-22T17:35:48.837Z,6.57
2019-04-22T17:38:45.442Z,8.77
2019-04-22T17:41:44.950Z,11.27
2019-04-22T17:44:42.319Z,8.93
2019-04-22T17:47:41.398Z,10.00
2019-04-22T17:50:37.926Z,5.73
2019-04-22T17:53:25.992Z,8.43
2019-04-22T17:56:13.743Z,10.57
2019-04-22T17:59:03.928Z,9.93
2019-04-22T18:01:54.008Z,10.77
2019-04-22T18:04:23.407Z,11.20
2019-04-22T18:13:20.468Z,10.50
2019-04-22T18:16:02.354Z,10.20
2019-04-22T18:18:53.288Z,14.93
2019-04-22T18:21:39.311Z,15.63
2019-04-22T18:24:20.004Z,17.73
2019-04-22T18:27:30.448Z,11.73
2019-04-22T18:29:59.994Z,16.90
2019-04-22T18:32:58.587Z,12.17
2019-04-22T18:35:39.378Z,14.47
2019-04-22T18:38:46.813Z,17.03
2019-04-22T18:41:18.199Z,11.10
2019-04-22T18:44:17.557Z,15.67
2019-04-22T18:47:01.284Z,9.70
2019-04-22T18:49:46.250Z,13.30
2019-04-22T18:52:49.930Z,10.83
2019-04-22T18:55:55.557Z,11.60
2019-04-22T18:58:39.388Z,13.33
2019-04-22T19:01:19.731Z,12.40
2019-04-22T19:04:16.450Z,14.80
2019-04-22T19:07:25.479Z,12.83
2019-04-22T19:10:17.269Z,12.80
2019-04-22T19:13:31.477Z,15.90
2019-04-22T19:15:54.089Z,18.97
2019-04-22T19:18:44.532Z,16.73
2019-04-22T19:21:19.421Z,18.13
2019-04-22T19:24:08.998Z,20.10
2019-04-22T19:27:02.214Z,18.33
2019-04-22T19:29:57.706Z,24.10
2019-04-22T19:32:46.398Z,21.73
2019-04-22T19:35:28.340Z,16.77
2019-04-22T19:38:12.241Z,18.47
2019-04-22T19:41:14.557Z,21.27
2019-04-22T19:44:04.060Z,22.83
2019-04-22T19:47:11.817Z,18.93
2019-04-22T19:49:48.116Z,16.10
2019-04-22T19:52:28.833Z,17.53
2019-04-22T19:55:18.282Z,16.70
2019-04-22T19:58:02.802Z,20.47
2019-04-22T20:01:13.182Z,19.00
2019-04-22T20:04:31.452Z,19.83
2019-04-22T20:07:14.174Z,16.93
2019-04-22T20:10:04.683Z,16.07
2019-04-22T20:12:50.060Z,21.77
2019-04-22T20:15:33.293Z,19.87
2019-04-22T20:21:26.773Z,14.73
2019-04-22T20:24:01.575Z,18.73
2019-04-22T20:27:10.836Z,20.97
2019-04-22T20:29:49.463Z,15.37
2019-04-22T20:32:40.277Z,17.30
2019-04-22T20:35:37.431Z,18.00
2019-04-22T20:38:16.859Z,19.97
2019-04-22T20:41:05.649Z,17.50
2019-04-22T20:43:57.694Z,17.37
2019-04-22T20:46:44.704Z,17.40
2019-04-22T20:49:35.273Z,17.60
2019-04-22T20:55:07.979Z,22.53
2019-04-22T20:58:02.672Z,17.53
2019-04-22T21:00:40.341Z,14.20
2019-04-22T21:03:29.406Z,19.47
2019-04-22T21:06:27.471Z,20.00
2019-04-22T21:09:18.549Z,24.07
2019-04-22T21:12:02.330Z,17.23
2019-04-22T21:15:02.511Z,19.60
2019-04-22T21:17:44.843Z,24.37
2019-04-22T21:20:37.790Z,15.20
2019-04-22T21:23:18.827Z,21.33
2019-04-22T21:26:13.573Z,17.10
2019-04-22T21:29:05.476Z,24.60
2019-04-22T21:31:56.064Z,20.80
2019-04-22T21:34:48.541Z,23.40
2019-04-22T21:37:38.546Z,15.23
2019-04-22T21:40:23.013Z,19.30
2019-04-22T21:43:13.657Z,21.63
2019-04-22T21:46:04.179Z,24.33
2019-04-22T21:48:46.276Z,19.23
2019-04-22T21:51:43.256Z,23.40
2019-04-22T21:54:34.673Z,20.47
2019-04-22T21:57:57.219Z,21.17
2019-04-22T22:03:43.005Z,19.20
2019-04-22T22:06:19.630Z,20.73
2019-04-22T22:09:23.257Z,29.13
2019-04-22T22:12:02.655Z,20.10
2019-04-22T22:14:56.083Z,23.43
2019-04-22T22:17:42.268Z,24.17
2019-04-22T22:20:45.260Z,16.27
2019-04-22T22:23:31.837Z,15.87
2019-04-22T22:26:09.568Z,20.47
2019-04-22T22:29:08.869Z,16.60
2019-04-22T22:32:02.839Z,20.53
2019-04-22T22:34:47.573Z,23.00
2019-04-22T22:37:21.896Z,15.97
2019-04-22T22:40:09.175Z,15.00
2019-04-22T22:42:53.621Z,22.10
2019-04-22T22:45:48.803Z,19.13
2019-04-22T22:48:52.021Z,15.47
2019-04-22T22:51:51.857Z,19.67
2019-04-22T22:54:33.001Z,18.40
2019-04-22T22:57:25.826Z,23.57
2019-04-22T23:00:03.886Z,13.13
2019-04-22T23:03:23.338Z,16.57
2019-04-22T23:05:53.234Z,24.10
2019-04-22T23:08:38.259Z,18.80
2019-04-22T23:11:34.390Z,16.33
2019-04-22T23:14:17.634Z,20.57
2019-04-22T23:16:49.491Z,20.20
2019-04-22T23:19:32.638Z,16.37
2019-04-22T23:22:30.232Z,15.47
2019-04-22T23:25:33.250Z,14.50
2019-04-22T23:28:30.068Z,16.37
2019-04-22T23:31:36.831Z,16.20
2019-04-22T23:34:32.960Z,18.57
2019-04-22T23:37:27.749Z,15.93
2019-04-22T23:40:32.585Z,16.90
2019-04-22T23:43:23.769Z,14.13
2019-04-22T23:46:04.214Z,20.37
2019-04-22T23:48:51.501Z,21.27
2019-04-22T23:51:51.727Z,18.80
2019-04-22T23:54:38.983Z,17.20
2019-04-22T23:57:26.352Z,12.40
